Time;durP1;ratioP1;P1;durP2;ratioP2;P2;SDS_P1;SDS_P2;PMS_P1;PMS_P2;Temp;Humidity;BMP_temperature;BMP_pressure;BME280_temperature;BME280_humidity;BME280_pressure;Samples;Min_cycle;Max_cycle;Signal;HPM_P1;HPM_P2
2024/02/12 00:02:23;;;;;;;33.23;20.80;;;;;;;5.59;100.00;99600.34;5052757;28;20429;-77
2024/02/12 00:04:58;;;;;;;32.47;20.80;;;;;;;6.55;100.00;99709.50;5050229;28;20973;-77
2024/02/12 00:07:37;;;;;;;39.47;21.90;;;;;;;6.64;100.00;99751.97;5027965;28;20437;-81
2024/02/12 00:10:20;;;;;;;;;;;;;;;;;;;;;
2024/02/12 00:12:57;;;;;;;34.70;21.53;;;;;;;5.85;100.00;99617.47;5041710;28;20432;-77
2024/02/12 00:15:27;;;;;;;33.63;21.93;;;;;;;5.73;100.00;99625.19;5046165;28;20955;-76
2024/02/12 00:18:03;;;;;;;33.30;22.23;;;;;;;6.27;100.00;99712.25;5043306;28;20517;-77
2024/02/12 00:20:33;;;;;;;35.03;20.93;;;;;;;5.53;100.00;99619.75;5047940;28;21086;-76
2024/02/12 00:23:11;;;;;;;;;;;;;;;;;;;;;
2024/02/12 00:25:50;;;;;;;32.87;21.00;;;;;;;4.67;100.00;99471.16;5044241;28;20448;-80
2024/02/12 00:28:25;;;;;;;37.30;22.20;;;;;;;6.00;100.00;99698.00;5028200;28;20448;-77
2024/02/12 00:31:05;;;;;;;34.73;22.30;;;;;;;5.19;100.00;99600.09;5026750;28;21268;-78
2024/02/12 00:33:46;;;;;;;;;;;;;;;;;;;;;
2024/02/12 00:36:28;;;;;;;;;;;;;;;;;;;;;
2024/02/12 00:39:07;;;;;;;33.93;21.90;;;;;;;5.31;100.00;99575.63;5045524;28;20437;-77
2024/02/12 00:41:44;;;;;;;32.40;19.53;;;;;;;4.47;100.00;99448.97;5048324;28;20927;-79
2024/02/12 00:44:20;;;;;;;32.30;21.00;;;;;;;4.68;100.00;99458.69;5045288;28;20436;-77
2024/02/12 00:46:58;;;;;;;;;;;;;;;;;;;;;
2024/02/12 00:49:34;;;;;;;42.03;20.63;;;;;;;5.25;100.00;99571.91;5048156;28;20450;-77
2024/02/12 00:52:18;;;;;;;;;;;;;;;;;;;;;
2024/02/12 00:54:55;;;;;;;35.33;20.30;;;;;;;4.76;100.00;99506.38;5054525;28;20469;-78
2024/02/12 00:57:28;;;;;;;33.83;19.00;;;;;;;5.77;100.00;99681.47;5055834;28;20429;-76
2024/02/12 01:00:02;;;;;;;39.33;19.33;;;;;;;6.27;100.00;99732.75;5040110;28;20549;-77
2024/02/12 01:02:36;;;;;;;33.53;19.20;;;;;;;6.09;100.00;99727.97;5042497;28;20914;-77
2024/02/12 01:05:18;;;;;;;31.07;19.73;;;;;;;4.73;100.00;99488.97;5034693;28;20681;-78
2024/02/12 01:07:56;;;;;;;36.03;19.50;;;;;;;4.79;100.00;99519.25;5053751;28;20451;-79
2024/02/12 01:10:33;;;;;;;33.37;18.00;;;;;;;5.91;100.00;99677.06;5049771;28;20464;-78
2024/02/12 01:13:02;;;;;;;31.17;18.43;;;;;;;5.33;100.00;99616.16;5045589;28;20441;-77
2024/02/12 01:15:40;;;;;;;30.97;18.80;;;;;;;5.16;100.00;99544.66;5052106;28;20979;-78
2024/02/12 01:18:24;;;;;;;;;;;;;;;;;;;;;
2024/02/12 01:20:54;;;;;;;29.33;17.00;;;;;;;6.38;100.00;99768.66;5054930;28;20478;-77
2024/02/12 01:23:40;;;;;;;;;;;;;;;;;;;;;
2024/02/12 01:26:27;;;;;;;;;;;;;;;;;;;;;
2024/02/12 01:28:58;;;;;;;31.17;19.10;;;;;;;5.57;100.00;99639.59;5052601;28;20446;-77
2024/02/12 01:31:34;;;;;;;30.10;17.97;;;;;;;4.97;100.00;99561.28;5052666;28;20441;-78
2024/02/12 01:34:13;;;;;;;29.00;18.20;;;;;;;4.11;100.00;99393.34;5033540;28;20995;-78
2024/02/12 01:36:46;;;;;;;33.40;18.57;;;;;;;5.81;100.00;99706.66;5053583;28;20436;-77
2024/02/12 01:39:24;;;;;;;;;;;;;;;;;;;;;
2024/02/12 01:42:08;;;;;;;;;;;;;;;;;;;;;
2024/02/12 01:44:51;;;;;;;36.53;19.50;;;;;;;5.87;100.00;99676.59;5053119;28;20439;-78
2024/02/12 01:47:30;;;;;;;;;;;;;;;;;;;;;
2024/02/12 01:50:12;;;;;;;;;;;;;;;;;;;;;
2024/02/12 01:52:57;;;;;;;33.20;17.60;;;;;;;5.56;100.00;99685.84;5056883;28;20428;-77
2024/02/12 01:55:37;;;;;;;;;;;;;;;;;;;;;
2024/02/12 01:58:10;;;;;;;27.60;17.10;;;;;;;5.58;100.00;99673.19;5054909;28;20428;-80
2024/02/12 02:00:46;;;;;;;;;;;;;;;;;;;;;
2024/02/12 02:03:27;;;;;;;;;;;;;;;;;;;;;
2024/02/12 02:06:06;;;;;;;;;;;;;;;;;;;;;
2024/02/12 02:08:47;;;;;;;30.30;16.37;;;;;;;6.45;100.00;99807.66;5053783;28;20430;-76
2024/02/12 02:11:28;;;;;;;;;;;;;;;;;;;;;
2024/02/12 02:14:08;;;;;;;;;;;;;;;;;;;;;
2024/02/12 02:16:42;;;;;;;31.30;17.00;;;;;;;5.40;100.00;99704.75;5044851;28;20453;-77
2024/02/12 02:19:18;;;;;;;24.97;15.37;;;;;;;6.03;100.00;99777.47;5049066;28;20460;-77
2024/02/12 02:21:54;;;;;;;28.33;15.63;;;;;;;4.70;100.00;99584.19;5049702;28;20440;-76
2024/02/12 02:24:34;;;;;;;;;;;;;;;;;;;;;
2024/02/12 02:27:08;;;;;;;26.90;15.67;;;;;;;5.26;100.00;99695.03;5053787;28;20422;-77
2024/02/12 02:29:49;;;;;;;22.27;14.60;;;;;;;6.20;100.00;99820.59;5053492;28;20464;-76
2024/02/12 02:32:19;;;;;;;30.70;16.33;;;;;;;4.51;100.00;99590.94;5057006;28;20846;-78
2024/02/12 02:34:55;;;;;;;25.50;14.57;;;;;;;6.01;100.00;99787.50;5054712;28;20499;-77
2024/02/12 02:37:28;;;;;;;26.23;15.23;;;;;;;4.42;100.00;99546.94;5051061;28;20429;-76
2024/02/12 02:40:09;;;;;;;;;;;;;;;;;;;;;
2024/02/12 02:42:48;;;;;;;;;;;;;;;;;;;;;
2024/02/12 02:45:24;;;;;;;30.20;14.57;;;;;;;4.88;100.00;99644.81;5056054;28;20425;-77
2024/02/12 02:48:08;;;;;;;;;;;;;;;;;;;;;
2024/02/12 02:50:45;;;;;;;22.17;13.47;;;;;;;4.94;100.00;99671.44;5054316;28;20441;-78
2024/02/12 02:53:26;;;;;;;;;;;;;;;;;;;;;
2024/02/12 02:56:07;;;;;;;;;;;;;;;;;;;;;
2024/02/12 02:58:46;;;;;;;22.80;14.53;;;;;;;4.16;100.00;99518.31;5047298;28;20452;-77
2024/02/12 03:01:24;;;;;;;;;;;;;;;;;;;;;
2024/02/12 03:03:54;;;;;;;20.90;13.03;;;;;;;5.02;100.00;99694.41;5051448;28;21041;-77
2024/02/12 03:06:33;;;;;;;;;;;;;;;;;;;;;
2024/02/12 03:09:13;;;;;;;;;;;;;;;;;;;;;
2024/02/12 03:11:52;;;;;;;;;;;;;;;;;;;;;
2024/02/12 03:14:31;;;;;;;;;;;;;;;;;;;;;
2024/02/12 03:17:02;;;;;;;24.90;13.93;;;;;;;5.64;100.00;99784.13;5057430;28;20923;-76
2024/02/12 03:19:31;;;;;;;23.53;13.70;;;;;;;4.96;100.00;99665.94;5052922;28;20453;-76
2024/02/12 03:22:07;;;;;;;26.00;13.80;;;;;;;5.98;100.00;99824.34;5051325;28;20429;-77
2024/02/12 03:24:43;;;;;;;24.23;14.83;;;;;;;6.14;100.00;99852.50;5032849;28;20802;-77
2024/02/12 03:27:20;;;;;;;25.37;13.33;;;;;;;5.67;100.00;99790.91;5054546;28;20504;-77
2024/02/12 03:29:56;;;;;;;21.30;12.87;;;;;;;4.91;100.00;99681.63;5053140;28;20460;-76
2024/02/12 03:32:29;;;;;;;23.73;14.27;;;;;;;5.56;100.00;99802.06;5035399;28;20442;-77
2024/02/12 03:35:05;;;;;;;24.97;14.63;;;;;;;4.87;100.00;99722.91;5055985;28;20511;-76
2024/02/12 03:37:35;;;;;;;27.90;14.60;;;;;;;7.16;100.00;100049.16;5051386;28;21205;-77
2024/02/12 03:40:12;;;;;;;22.70;13.80;;;;;;;5.05;100.00;99703.84;5034086;28;20496;-76
2024/02/12 03:42:50;;;;;;;22.23;13.70;;;;;;;6.06;100.00;99909.38;5036400;28;20515;-76
2024/02/12 03:45:20;;;;;;;22.10;13.60;;;;;;;6.36;100.00;99910.00;5050676;28;20425;-77
2024/02/12 03:47:58;;;;;;;23.20;12.90;;;;;;;5.41;100.00;99756.94;5051435;28;20595;-78
2024/02/12 04:01:50;;;;;;;;;;;;;;;;;;;;;
2024/02/12 04:04:31;;;;;;;;;;;;;;;;;;;;;
2024/02/12 04:07:02;;;;;;;19.53;12.60;;;;;;;5.23;100.00;99728.13;5050186;28;20428;-78
2024/02/12 04:09:42;;;;;;;;;;;;;;;;;;;;;
2024/02/12 04:12:16;;;;;;;20.53;13.07;;;;;;;6.24;100.00;99892.94;5054199;28;20429;-78
2024/02/12 04:14:47;;;;;;;22.70;13.87;;;;;;;5.55;100.00;99805.72;5049633;28;20480;-78
2024/02/12 04:17:20;;;;;;;24.23;13.50;;;;;;;4.27;100.00;99640.72;5040913;28;20496;-77
2024/02/12 04:19:58;;;;;;;;;;;;;;;;;;;;;
2024/02/12 04:22:32;;;;;;;20.87;13.73;;;;;;;5.45;100.00;99790.09;5050370;28;20429;-79
2024/02/12 04:25:11;;;;;;;23.70;13.63;;;;;;;6.04;100.00;99882.94;5029746;28;20843;-77
2024/02/12 04:27:52;;;;;;;;;;;;;;;;;;;;;
2024/02/12 04:30:42;;;;;;;;;;;;;;;;;;;;;
2024/02/12 04:33:15;;;;;;;22.83;13.50;;;;;;;6.36;100.00;99949.97;5052673;28;20422;-77
2024/02/12 04:35:45;;;;;;;23.07;15.37;;;;;;;6.49;100.00;99994.56;5031169;28;20479;-77
2024/02/12 04:38:16;;;;;;;21.80;14.03;;;;;;;5.97;100.00;99915.84;5026600;28;20438;-77
2024/02/12 04:40:59;;;;;;;;;;;;;;;;;;;;;
2024/02/12 04:43:39;;;;;;;;;;;;;;;;;;;;;
2024/02/12 04:46:15;;;;;;;19.83;13.73;;;;;;;4.62;100.00;99685.22;5053766;28;20425;-77
2024/02/12 04:48:57;;;;;;;;;;;;;;;;;;;;;
2024/02/12 04:51:33;;;;;;;21.93;14.33;;;;;;;5.15;100.00;99771.63;5050840;28;20461;-76
2024/02/12 04:54:03;;;;;;;20.43;13.43;;;;;;;5.26;100.00;99778.25;5035416;28;20472;-77
2024/02/12 04:56:39;;;;;;;23.27;14.10;;;;;;;4.63;100.00;99690.38;5039823;28;20901;-78
2024/02/12 04:59:24;;;;;;;;;;;;;;;;;;;;;
2024/02/12 05:01:55;;;;;;;22.80;14.63;;;;;;;5.87;100.00;99910.81;5046567;28;20797;-77
2024/02/12 05:04:38;;;;;;;;;;;;;;;;;;;;;
2024/02/12 05:07:17;;;;;;;;;;;;;;;;;;;;;
2024/02/12 05:09:55;;;;;;;25.17;14.10;;;;;;;6.02;100.00;99927.59;5053224;28;20965;-78
2024/02/12 05:12:28;;;;;;;19.40;13.73;;;;;;;6.28;100.00;99958.94;5045178;28;20904;-77
2024/02/12 05:15:01;;;;;;;26.77;14.77;;;;;;;5.24;100.00;99776.81;5045495;28;20476;-77
2024/02/12 05:17:51;;;;;;;;;;;;;;;;;;;;;
2024/02/12 05:23:22;;;;;;;;;;;;;;;;;;;;;
2024/02/12 05:26:02;;;;;;;;;;;;;;;;;;;;;
2024/02/12 05:28:38;;;;;;;20.83;14.43;;;;;;;4.46;100.00;99663.22;5058811;28;20968;-78
2024/02/12 05:31:13;;;;;;;;;;;;;;;;;;;;;
2024/02/12 05:33:54;;;;;;;;;;;;;;;;;;;;;
2024/02/12 05:36:25;;;;;;;24.60;14.63;;;;;;;4.53;100.00;99685.34;5053023;28;20448;-77
2024/02/12 05:39:04;;;;;;;21.90;14.63;;;;;;;4.55;100.00;99661.25;5055713;28;20844;-76
2024/02/12 05:41:43;;;;;;;21.53;14.43;;;;;;;6.20;100.00;99956.41;5051350;28;20941;-76
2024/02/12 05:44:19;;;;;;;26.07;15.20;;;;;;;5.20;100.00;99765.72;5033336;28;20445;-80
2024/02/12 05:46:49;;;;;;;28.10;14.80;;;;;;;5.14;100.00;99769.97;5046034;28;20441;-77
2024/02/12 05:49:56;;;;;;;;;;;;;;;;;;;;;
2024/02/12 05:52:37;;;;;;;;;;;;;;;;;;;;;
2024/02/12 05:55:18;;;;;;;;;;;;;;;;;;;;;
2024/02/12 05:58:04;;;;;;;24.37;15.43;;;;;;;4.86;100.00;99738.00;5043150;28;20448;-78
2024/02/12 06:00:42;;;;;;;;;;;;;;;;;;;;;
2024/02/12 06:03:15;;;;;;;24.40;14.90;;;;;;;5.54;100.00;99852.78;5049240;28;20446;-77
2024/02/12 06:05:49;;;;;;;28.97;15.00;;;;;;;6.18;100.00;99944.28;5047547;28;20587;-77
2024/02/12 06:08:15;;;;;;;23.17;14.33;;;;;;;4.80;100.00;99725.47;5071946;22;20560;-77
2024/02/12 06:10:42;;;;;;;21.43;14.33;;;;;;;4.51;100.00;99703.31;5044274;28;20566;-76
2024/02/12 06:13:09;;;;;;;25.57;14.93;;;;;;;6.26;100.00;99992.09;5062355;28;20835;-75
2024/02/12 06:15:34;;;;;;;21.60;13.63;;;;;;;5.32;100.00;99846.66;5065483;28;20449;-77
2024/02/12 06:18:02;;;;;;;24.47;15.30;;;;;;;4.35;100.00;99690.25;5057006;28;20508;-75
2024/02/12 06:20:28;;;;;;;28.47;15.50;;;;;;;5.44;100.00;99834.50;5029892;28;20188;-77
2024/02/12 06:22:53;;;;;;;21.77;13.53;;;;;;;4.72;100.00;99752.16;5026254;28;20449;-76
2024/02/12 06:25:19;;;;;;;24.60;13.90;;;;;;;5.91;100.00;99912.09;5026138;28;20219;-76
2024/02/12 06:27:45;;;;;;;25.63;13.10;;;;;;;4.59;100.00;99752.81;5035332;28;20295;-77
2024/02/12 06:30:12;;;;;;;21.87;13.50;;;;;;;7.28;100.00;100159.63;5046546;28;20521;-77
2024/02/12 06:32:37;;;;;;;22.00;13.80;;;;;;;4.90;100.00;99773.00;5048823;28;20464;-77
2024/02/12 06:35:03;;;;;;;23.43;14.23;;;;;;;6.27;100.00;99996.41;5042062;28;20457;-76
2024/02/12 06:37:28;;;;;;;28.53;15.50;;;;;;;5.61;100.00;99944.16;5047324;28;20231;-77
2024/02/12 06:39:54;;;;;;;22.30;14.10;;;;;;;6.09;100.00;100018.97;5043599;28;20221;-76
2024/02/12 06:42:20;;;;;;;22.93;14.10;;;;;;;4.46;100.00;99726.94;5025686;28;20183;-76
2024/02/12 06:44:45;;;;;;;24.70;15.70;;;;;;;4.25;100.00;99692.34;5044086;28;20862;-77
2024/02/12 06:47:11;;;;;;;22.50;14.67;;;;;;;5.18;100.00;99879.44;5042972;28;20212;-76
2024/02/12 06:49:36;;;;;;;26.20;15.77;;;;;;;5.95;100.00;100008.38;5027354;28;20447;-76
2024/02/12 06:52:02;;;;;;;20.10;14.37;;;;;;;5.01;100.00;99870.84;5038145;28;20545;-76
2024/02/12 06:54:29;;;;;;;24.50;14.33;;;;;;;4.81;100.00;99835.25;5025643;28;20310;-76
2024/02/12 06:56:54;;;;;;;22.57;14.27;;;;;;;5.00;100.00;99887.78;5027665;28;20562;-77
2024/02/12 06:59:20;;;;;;;27.30;15.83;;;;;;;6.06;100.00;100034.50;5046382;28;20461;-76
2024/02/12 07:01:45;;;;;;;26.93;16.10;;;;;;;4.61;100.00;99814.56;5025398;28;20279;-77
2024/02/12 07:04:11;;;;;;;23.23;15.30;;;;;;;6.16;100.00;100066.97;5023276;28;20180;-76
2024/02/12 07:06:36;;;;;;;26.90;14.83;;;;;;;4.27;100.00;99776.09;5042337;28;20278;-76
2024/02/12 07:09:02;;;;;;;21.70;14.40;;;;;;;5.19;100.00;99945.69;5027543;28;20661;-76
2024/02/12 07:11:30;;;;;;;27.60;15.33;;;;;;;4.19;100.00;99783.34;5030150;28;20278;-76
2024/02/12 07:13:55;;;;;;;26.07;15.90;;;;;;;4.05;100.00;99729.25;5040897;28;20485;-76
2024/02/12 07:16:23;;;;;;;24.33;15.60;;;;;;;5.52;100.00;99998.44;5045687;28;20856;-77
2024/02/12 07:18:49;;;;;;;24.97;16.00;;;;;;;7.16;100.00;100263.34;5044795;28;20684;-77
2024/02/12 07:21:14;;;;;;;28.17;15.57;;;;;;;6.10;100.00;100079.22;5031221;28;20461;-75
2024/02/12 07:23:40;;;;;;;28.87;16.40;;;;;;;4.83;100.00;99871.25;5046562;28;20188;-76
2024/02/12 07:26:07;;;;;;;29.67;15.50;;;;;;;4.10;100.00;99787.91;5045537;28;20438;-76
2024/02/12 07:28:33;;;;;;;27.67;15.17;;;;;;;7.12;100.00;100285.28;5038286;28;20204;-76
2024/02/12 07:30:58;;;;;;;26.97;16.07;;;;;;;6.28;100.00;100144.56;5026132;28;20930;-76
2024/02/12 07:33:24;;;;;;;25.90;15.43;;;;;;;4.27;100.00;99809.81;5038604;28;20466;-76
2024/02/12 07:35:49;;;;;;;25.20;16.13;;;;;;;5.57;100.00;100027.97;5033468;28;20267;-77
2024/02/12 07:38:15;;;;;;;28.37;17.97;;;;;;;5.43;100.00;99957.84;5025113;28;20242;-76
2024/02/12 07:40:40;;;;;;;32.50;16.93;;;;;;;5.06;100.00;99950.81;5044087;28;20873;-76
2024/02/12 07:43:08;;;;;;;32.80;16.40;;;;;;;4.48;100.00;99831.16;5021914;28;20218;-76
2024/02/12 07:45:34;;;;;;;29.33;16.97;;;;;;;5.65;100.00;100013.75;5038959;28;20195;-76
2024/02/12 07:48:00;;;;;;;25.70;15.07;;;;;;;4.36;100.00;99821.16;5024241;28;20824;-77
2024/02/12 07:50:26;;;;;;;29.97;16.40;;;;;;;5.18;100.00;99970.63;5046351;28;20942;-77
2024/02/12 07:52:51;;;;;;;28.37;16.73;;;;;;;6.28;100.00;100160.53;5044186;28;20442;-76
2024/02/12 07:55:19;;;;;;;26.43;16.43;;;;;;;4.24;100.00;99816.28;5051307;28;20612;-76
2024/02/12 07:57:50;;;;;;;28.03;16.70;;;;;;;6.26;100.00;100123.41;5043442;28;20352;-77
2024/02/12 08:00:17;;;;;;;29.73;16.27;;;;;;;4.71;100.00;99857.56;5026512;28;20437;-76
2024/02/12 08:02:44;;;;;;;27.60;16.10;;;;;;;4.28;100.00;99844.16;5023916;28;22044;-77
2024/02/12 08:05:11;;;;;;;28.03;16.57;;;;;;;4.19;100.00;99786.00;5027773;28;20794;-77
2024/02/12 08:07:36;;;;;;;28.67;15.83;;;;;;;5.64;100.00;100076.78;5042668;28;20472;-77
2024/02/12 08:10:03;;;;;;;25.33;16.23;;;;;;;5.21;100.00;99970.25;5046984;28;20446;-77
2024/02/12 08:12:29;;;;;;;27.23;16.00;;;;;;;6.04;100.00;100117.22;5030245;28;20180;-77
2024/02/12 08:14:55;;;;;;;26.23;15.17;;;;;;;4.62;100.00;99925.09;5029165;28;21238;-76
2024/02/12 08:17:20;;;;;;;29.13;16.23;;;;;;;5.24;100.00;100038.22;5045093;28;20473;-76
2024/02/12 08:19:46;;;;;;;23.87;15.70;;;;;;;6.67;100.00;100234.72;5047602;28;20179;-76
2024/02/12 08:22:13;;;;;;;26.83;16.13;;;;;;;6.09;100.00;100152.09;5046304;28;20210;-76
2024/02/12 08:24:39;;;;;;;28.93;15.77;;;;;;;4.47;100.00;99925.06;5030612;28;20180;-76
2024/02/12 08:27:07;;;;;;;26.50;15.23;;;;;;;4.80;100.00;99966.41;4991287;28;20488;-77
2024/02/12 08:29:32;;;;;;;25.60;14.83;;;;;;;4.95;100.00;99999.16;5000733;28;20272;-76
2024/02/12 08:32:00;;;;;;;28.70;16.57;;;;;;;5.32;100.00;100032.81;5000179;28;20519;-75
2024/02/12 08:34:25;;;;;;;23.93;15.20;;;;;;;5.08;100.00;99967.44;5005234;28;20201;-76
2024/02/12 08:36:52;;;;;;;25.97;15.50;;;;;;;5.86;100.00;100111.44;5004513;28;20450;-76
2024/02/12 08:39:20;;;;;;;32.00;16.17;;;;;;;5.97;100.00;100142.94;5003747;28;20677;-77
2024/02/12 08:41:46;;;;;;;29.73;15.00;;;;;;;5.95;100.00;100136.97;5002977;28;20447;-76
2024/02/12 08:44:11;;;;;;;28.80;15.60;;;;;;;5.49;100.00;100094.56;5005826;28;20440;-76
2024/02/12 08:46:37;;;;;;;27.33;15.40;;;;;;;4.90;100.00;99988.25;5005143;28;20189;-76
2024/02/12 08:49:02;;;;;;;29.53;15.17;;;;;;;4.45;100.00;99913.00;5003724;28;20212;-76
2024/02/12 08:51:29;;;;;;;27.27;16.50;;;;;;;5.87;100.00;100168.97;4999481;28;20232;-76
2024/02/12 08:53:56;;;;;;;31.47;15.80;;;;;;;4.53;100.00;99961.53;5003873;28;20505;-75
2024/02/12 08:56:21;;;;;;;24.53;15.50;;;;;;;5.80;100.00;100168.91;5000003;28;20280;-76
2024/02/12 08:58:48;;;;;;;30.27;14.67;;;;;;;4.53;100.00;99955.41;4996793;28;20464;-76
2024/02/12 09:01:16;;;;;;;25.10;15.93;;;;;;;4.94;100.00;100005.44;5003773;28;20188;-76
2024/02/12 09:03:42;;;;;;;32.80;15.13;;;;;;;5.63;100.00;100109.72;4995683;28;20539;-76
2024/02/12 09:06:16;;;;;;;30.07;15.47;;;;;;;6.21;100.00;100194.22;4995695;28;20440;-76
2024/02/12 09:08:43;;;;;;;22.47;15.17;;;;;;;5.36;100.00;100052.69;4997905;28;20529;-77
2024/02/12 09:11:09;;;;;;;28.77;14.70;;;;;;;5.52;100.00;100091.53;5008882;28;20456;-76
2024/02/12 09:13:36;;;;;;;27.90;15.70;;;;;;;6.29;100.00;100208.25;4998972;28;20938;-76
2024/02/12 09:16:02;;;;;;;23.97;14.67;;;;;;;4.96;100.00;99987.50;5000448;28;20493;-75
2024/02/12 09:18:28;;;;;;;27.20;15.90;;;;;;;6.34;100.00;100210.38;4998759;28;20474;-76
2024/02/12 09:20:56;;;;;;;26.43;14.63;;;;;;;6.53;100.00;100219.59;5000097;28;20439;-75
2024/02/12 09:23:22;;;;;;;28.90;16.77;;;;;;;6.06;100.00;100139.16;4999707;28;20513;-77
2024/02/12 09:25:51;;;;;;;26.10;14.43;;;;;;;6.43;100.00;100211.09;5001661;28;20444;-77
2024/02/12 09:28:18;;;;;;;29.33;14.00;;;;;;;5.06;100.00;100016.47;4995467;28;20523;-77
2024/02/12 09:30:46;;;;;;;22.00;12.90;;;;;;;6.76;100.00;100288.75;4998613;28;20428;-77
2024/02/12 09:33:12;;;;;;;24.90;13.90;;;;;;;7.36;100.00;100359.59;4998023;28;20471;-75
2024/02/12 09:35:38;;;;;;;22.37;12.80;;;;;;;7.14;100.00;100337.38;5000288;28;20572;-77
2024/02/12 09:38:03;;;;;;;22.53;14.10;;;;;;;5.20;100.00;99989.88;4997337;28;20459;-78
2024/02/12 09:40:33;;;;;;;23.97;13.77;;;;;;;6.75;100.00;100217.81;5001624;28;20177;-77
2024/02/12 09:42:59;;;;;;;23.23;12.93;;;;;;;6.87;100.00;100250.13;4999453;28;20189;-76
2024/02/12 09:45:30;;;;;;;22.67;11.63;;;;;;;5.02;100.00;99957.53;4996826;28;21024;-76
2024/02/12 09:48:00;;;;;;;21.50;11.40;;;;;;;6.65;100.00;100182.63;5010388;28;20864;-77
2024/02/12 09:50:27;;;;;;;23.10;11.33;;;;;;;7.57;100.00;100365.94;4998476;28;20549;-76
2024/02/12 09:52:58;;;;;;;26.53;11.10;;;;;;;5.85;100.00;100123.09;5010366;28;20478;-76
2024/02/12 09:55:25;;;;;;;18.93;10.10;;;;;;;5.80;100.00;100166.22;5007982;28;20590;-75
2024/02/12 09:57:53;;;;;;;21.37;9.87;;;;;;;6.34;100.00;100237.03;5000575;28;21179;-76
2024/02/12 10:00:22;;;;;;;17.50;9.63;;;;;;;5.89;100.00;100122.53;4999160;28;20850;-77
2024/02/12 10:02:53;;;;;;;21.03;10.87;;;;;;;7.06;100.00;100300.19;4997078;28;21394;-77
2024/02/12 10:05:23;;;;;;;18.73;9.57;;;;;;;4.73;100.00;99948.53;5010091;28;20494;-77
2024/02/12 10:07:50;;;;;;;19.20;9.40;;;;;;;7.84;100.00;100485.34;4997854;28;20498;-77
2024/02/12 10:10:18;;;;;;;21.30;8.77;;;;;;;6.91;100.00;100313.53;5002923;28;20542;-76
2024/02/12 10:12:53;;;;;;;18.27;8.87;;;;;;;6.18;100.00;100202.59;5001697;28;20439;-76
2024/02/12 10:15:20;;;;;;;20.73;9.80;;;;;;;4.61;100.00;100005.78;5022812;28;20648;-76
2024/02/12 10:17:47;;;;;;;22.37;9.80;;;;;;;6.93;100.00;100326.69;5002046;28;20464;-76
2024/02/12 10:20:13;;;;;;;17.37;8.23;;;;;;;6.64;100.00;100291.06;5038169;22;20664;-74
2024/02/12 10:22:40;;;;;;;17.00;7.77;;;;;;;6.59;100.00;100303.31;5022960;28;20884;-74
2024/02/12 10:25:06;;;;;;;15.83;7.53;;;;;;;6.30;100.00;100230.41;5029227;28;20650;-74
2024/02/12 10:27:32;;;;;;;15.67;7.17;;;;;;;6.39;100.00;100237.25;5015537;28;20460;-74
2024/02/12 10:30:01;;;;;;;18.37;7.40;;;;;;;5.81;100.00;100210.44;5000745;28;20534;-74
2024/02/12 10:32:27;;;;;;;15.93;7.80;;;;;;;7.09;100.00;100413.63;5002637;28;20526;-75
2024/02/12 10:34:56;;;;;;;16.20;7.90;;;;;;;6.34;100.00;100279.63;5002267;28;20478;-74
2024/02/12 10:37:24;;;;;;;21.07;9.20;;;;;;;5.80;100.00;100258.56;5004908;28;20905;-74
2024/02/12 10:39:52;;;;;;;13.53;7.20;;;;;;;5.43;100.00;100169.78;5009150;28;20447;-74
2024/02/12 10:42:25;;;;;;;33.97;8.83;;;;;;;6.15;100.00;100304.16;5009907;28;20440;-74
2024/02/12 10:44:51;;;;;;;16.03;7.00;;;;;;;6.76;100.00;100404.19;5009493;28;20439;-74
2024/02/12 10:47:17;;;;;;;16.13;7.60;;;;;;;6.76;100.00;100412.19;5008852;28;20455;-74
2024/02/12 10:49:44;;;;;;;17.50;7.47;;;;;;;5.71;100.00;100180.66;5003638;28;20455;-74
2024/02/12 10:52:15;;;;;;;17.50;7.90;;;;;;;7.23;100.00;100450.97;5003855;28;20637;-74
2024/02/12 10:54:45;;;;;;;17.60;7.03;;;;;;;6.53;100.00;100320.84;5003621;28;20482;-74
2024/02/12 10:57:12;;;;;;;13.30;7.07;;;;;;;5.70;100.00;100248.19;5003995;28;20813;-74
2024/02/12 10:59:39;;;;;;;15.90;7.10;;;;;;;6.56;100.00;100355.13;5001318;28;20447;-74
2024/02/12 11:02:09;;;;;;;20.93;7.60;;;;;;;7.88;100.00;100537.34;5001636;28;21103;-74
2024/02/12 11:04:37;;;;;;;16.03;7.80;;;;;;;5.81;100.00;100204.31;5005781;28;20451;-75
2024/02/12 11:07:16;;;;;;;14.83;6.70;;;;;;;7.37;100.00;100451.13;5002263;28;20432;-75
2024/02/12 11:09:41;;;;;;;14.30;7.00;;;;;;;5.86;100.00;100217.91;5006636;28;20501;-76
2024/02/12 11:12:32;;;;;;;;;;;;;;;;;;;;;
2024/02/12 11:15:28;;;;;;;;;;;;;;;;;;;;;
2024/02/12 11:17:55;;;;;;;18.07;7.57;;;;;;;5.36;100.00;100158.25;5010608;28;20480;-76
2024/02/12 11:20:25;;;;;;;15.83;6.80;;;;;;;6.89;100.00;100400.88;5021188;28;20451;-75
2024/02/12 11:22:52;;;;;;;17.73;7.43;;;;;;;6.75;100.00;100423.88;5008360;28;20440;-75
2024/02/12 11:25:18;;;;;;;16.37;6.10;;;;;;;5.66;100.00;100262.84;5004913;28;20949;-75
2024/02/12 11:27:58;;;;;;;16.97;7.87;;;;;;;5.60;100.00;100244.94;5001713;28;20479;-75
2024/02/12 11:30:26;;;;;;;16.43;7.30;;;;;;;7.05;100.00;100505.69;5007148;28;20440;-75
2024/02/12 11:32:56;;;;;;;16.60;6.63;;;;;;;5.62;100.00;100283.66;5007870;28;20896;-75
2024/02/12 11:35:21;;;;;;;12.47;6.80;;;;;;;6.08;100.00;100328.84;5008479;28;20476;-76
2024/02/12 11:37:59;;;;;;;13.43;6.47;;;;;;;6.60;100.00;100400.91;5008886;28;20463;-75
2024/02/12 11:40:25;;;;;;;13.70;6.87;;;;;;;5.90;100.00;100309.69;5006277;28;20230;-75
2024/02/12 11:42:50;;;;;;;19.07;6.57;;;;;;;5.70;100.00;100295.22;5011608;28;21094;-74
2024/02/12 11:45:22;;;;;;;15.93;7.10;;;;;;;6.60;100.00;100428.38;5003794;28;20189;-75
2024/02/12 11:47:51;;;;;;;14.00;6.07;;;;;;;8.05;100.00;100655.47;5012510;28;20217;-75
2024/02/12 11:50:24;;;;;;;18.37;6.90;;;;;;;5.94;100.00;100358.94;5008793;28;20521;-75
2024/02/12 11:52:53;;;;;;;16.87;7.23;;;;;;;5.91;100.00;100294.56;5007179;28;20505;-75
2024/02/12 11:55:19;;;;;;;14.37;7.07;;;;;;;7.40;100.00;100536.94;5010806;28;20526;-75
2024/02/12 11:57:48;;;;;;;15.67;6.07;;;;;;;7.59;100.00;100607.63;5005119;28;20490;-74
2024/02/12 12:00:18;;;;;;;16.70;7.30;;;;;;;7.22;100.00;100523.16;5006582;28;20188;-74
2024/02/12 12:02:52;;;;;;;18.93;7.37;;;;;;;7.12;100.00;100511.97;5003491;28;20844;-75
2024/02/12 12:05:20;;;;;;;15.90;6.50;;;;;;;8.21;100.00;100689.16;5008819;28;20432;-75
2024/02/12 12:07:46;;;;;;;13.10;6.10;;;;;;;7.69;100.00;100640.22;5004391;28;20482;-75
2024/02/12 12:10:12;;;;;;;12.50;7.07;;;;;;;6.29;100.00;100458.63;5002486;28;21004;-75
2024/02/12 12:12:43;;;;;;;18.97;6.10;;;;;;;8.16;100.00;100704.94;5002916;28;20448;-75
2024/02/12 12:15:09;;;;;;;10.40;5.30;;;;;;;6.45;100.00;100408.88;5017984;28;20579;-74
2024/02/12 12:17:37;;;;;;;12.97;5.63;;;;;;;6.09;100.00;100356.28;5001251;28;20463;-75
2024/02/12 12:20:05;;;;;;;14.03;6.57;;;;;;;6.99;100.00;100521.41;5018391;28;20479;-75
2024/02/12 12:22:32;;;;;;;12.80;5.40;;;;;;;6.98;100.00;100533.09;4999910;28;20447;-75
2024/02/12 12:24:58;;;;;;;15.23;6.10;;;;;;;6.17;100.00;100427.31;5002817;28;20436;-74
2024/02/12 12:27:27;;;;;;;12.00;5.67;;;;;;;7.34;100.00;100587.56;5003389;28;21021;-75
2024/02/12 12:29:54;;;;;;;12.53;5.57;;;;;;;6.08;100.00;100387.44;5003149;28;20301;-75
2024/02/12 12:32:20;;;;;;;11.63;5.50;;;;;;;6.44;100.00;100487.16;5020945;28;20435;-75
2024/02/12 12:34:45;;;;;;;14.20;6.00;;;;;;;7.31;100.00;100561.25;5004959;28;20475;-75
2024/02/12 12:37:14;;;;;;;11.20;5.53;;;;;;;6.65;100.00;100516.59;5004189;28;20439;-75
2024/02/12 12:39:41;;;;;;;16.47;6.40;;;;;;;6.14;100.00;100369.06;5002207;28;20196;-75
2024/02/12 12:42:10;;;;;;;14.57;5.63;;;;;;;6.61;100.00;100467.34;5003286;28;21006;-74
2024/02/12 12:44:38;;;;;;;12.00;4.50;;;;;;;8.04;100.00;100688.53;5003410;28;20458;-75
2024/02/12 12:47:05;;;;;;;14.40;5.37;;;;;;;7.15;100.00;100570.28;5002232;28;20940;-74
2024/02/12 12:49:33;;;;;;;15.10;4.80;;;;;;;6.84;100.00;100514.44;5001798;28;20440;-75
2024/02/12 12:52:02;;;;;;;11.83;5.00;;;;;;;6.54;100.00;100477.06;5001798;28;21158;-75
2024/02/12 12:54:27;;;;;;;10.53;4.70;;;;;;;6.59;100.00;100497.84;5000991;28;20597;-75
2024/02/12 12:56:53;;;;;;;14.27;5.17;;;;;;;6.65;100.00;100497.09;5000882;28;20485;-75
2024/02/12 12:59:18;;;;;;;17.17;5.30;;;;;;;7.24;100.00;100628.69;5003274;28;20212;-75
2024/02/12 13:01:44;;;;;;;12.00;4.60;;;;;;;7.13;100.00;100466.44;5011034;28;20555;-75